createdAt,value
2018-09-06T00:00:57.397Z,22
2018-09-06T00:05:55.914Z,21.9
2018-09-06T00:10:54.151Z,21.9
2018-09-06T00:15:52.723Z,21.8
2018-09-06T00:20:50.871Z,21.8
2018-09-06T00:25:49.280Z,21.7
2018-09-06T00:30:47.843Z,21.7
2018-09-06T00:35:46.401Z,21.6
2018-09-06T00:40:44.866Z,21.6
2018-09-06T00:45:42.916Z,21.5
2018-09-06T00:50:41.504Z,21.5
2018-09-06T00:55:40.133Z,21.5
2018-09-06T01:00:38.719Z,21.4
2018-09-06T01:05:37.337Z,21.4
2018-09-06T01:10:35.940Z,21.4
2018-09-06T01:15:34.250Z,21.3
2018-09-06T01:20:32.400Z,21.3
2018-09-06T01:25:31.065Z,21.2
2018-09-06T01:30:29.869Z,20.7
2018-09-06T01:35:28.281Z,21.1
2018-09-06T01:40:27.016Z,21.1
2018-09-06T01:45:25.469Z,21.1
2018-09-06T01:50:23.947Z,21
2018-09-06T01:55:22.048Z,21
2018-09-06T02:00:20.694Z,20.9
2018-09-06T02:05:19.020Z,20.9
2018-09-06T02:10:17.664Z,20.9
2018-09-06T02:15:16.137Z,20.8
2018-09-06T02:20:14.559Z,20.8
2018-09-06T02:25:13.135Z,20.7
2018-09-06T02:30:11.778Z,20.7
2018-09-06T02:35:10.464Z,20.7
2018-09-06T02:40:09.048Z,20.6
2018-09-06T02:45:07.594Z,20.6
2018-09-06T02:50:05.613Z,20.5
2018-09-06T02:55:04.140Z,20.5
2018-09-06T03:00:02.839Z,20.5
2018-09-06T03:05:01.401Z,20.4
2018-09-06T03:10:00.036Z,20.4
2018-09-06T03:14:58.448Z,20.3
2018-09-06T03:19:56.896Z,20.3
2018-09-06T03:24:55.699Z,20.3
2018-09-06T03:29:54.332Z,20.2
2018-09-06T03:34:52.774Z,20.2
2018-09-06T03:39:51.402Z,20.1
2018-09-06T03:44:50.069Z,20.1
2018-09-06T03:49:48.537Z,20.1
2018-09-06T03:54:46.999Z,20
2018-09-06T03:59:45.375Z,20
2018-09-06T04:04:43.847Z,20
2018-09-06T04:09:42.426Z,19.9
2018-09-06T04:14:41.116Z,19.9
2018-09-06T04:19:39.709Z,19.9
2018-09-06T04:24:38.205Z,19.8
2018-09-06T04:29:36.624Z,19.8
2018-09-06T04:34:34.921Z,19.8
2018-09-06T04:39:32.995Z,19.7
2018-09-06T04:44:31.150Z,19.7
2018-09-06T04:49:29.806Z,19.6
2018-09-06T04:54:28.325Z,19.6
2018-09-06T04:59:26.800Z,19.6
2018-09-06T05:04:25.518Z,19.5
2018-09-06T05:09:23.535Z,19.5
2018-09-06T05:14:21.948Z,19.5
2018-09-06T05:19:20.632Z,19.5
2018-09-06T05:24:18.879Z,19.4
2018-09-06T05:29:17.611Z,19.4
2018-09-06T05:34:16.092Z,19.4
2018-09-06T05:39:14.791Z,19.4
2018-09-06T05:44:13.194Z,19.4
2018-09-06T05:49:11.654Z,19.3
2018-09-06T05:54:10.229Z,19.3
2018-09-06T05:59:08.352Z,19.3
2018-09-06T06:04:06.979Z,19.3
2018-09-06T06:09:05.955Z,19.3
2018-09-06T06:14:04.583Z,19.3
2018-09-06T06:19:02.980Z,19.3
2018-09-06T06:24:01.679Z,19.1
2018-09-06T06:29:00.306Z,18.8
2018-09-06T06:39:03.329Z,19.3
2018-09-06T06:44:01.900Z,19.3
2018-09-06T06:49:00.553Z,19.3
2018-09-06T06:53:58.877Z,19.3
2018-09-06T06:58:57.224Z,19.4
2018-09-06T07:03:55.639Z,19.4
2018-09-06T07:08:54.399Z,19.4
2018-09-06T07:13:53.084Z,19.4
2018-09-06T07:18:51.836Z,19.4
2018-09-06T07:23:50.386Z,19.4
2018-09-06T07:28:48.976Z,19.5
2018-09-06T07:33:47.140Z,19.5
2018-09-06T07:38:45.793Z,19.5
2018-09-06T07:43:44.282Z,19.5
2018-09-06T07:48:43.006Z,19.6
2018-09-06T07:53:41.485Z,19.6
2018-09-06T07:58:40.181Z,19.6
2018-09-06T08:03:38.816Z,19.6
2018-09-06T08:08:37.203Z,19.7
2018-09-06T08:13:35.518Z,19.7
2018-09-06T08:18:34.067Z,19.7
2018-09-06T08:23:32.906Z,19.8
2018-09-06T08:28:31.629Z,19.8
2018-09-06T08:33:30.497Z,19.9
2018-09-06T08:38:29.246Z,19.9
2018-09-06T08:43:27.703Z,19.9
2018-09-06T08:48:26.261Z,20
2018-09-06T08:53:25.191Z,19.5
2018-09-06T08:58:23.721Z,20
2018-09-06T09:03:22.913Z,20.1
2018-09-06T09:08:21.841Z,19.7
2018-09-06T09:13:20.511Z,20.2
2018-09-06T09:18:19.496Z,20.2
2018-09-06T09:23:18.286Z,20.3
2018-09-06T09:28:17.230Z,20.3
2018-09-06T09:33:16.349Z,20.4
2018-09-06T09:38:14.984Z,20.4
2018-09-06T09:43:13.797Z,20.5
2018-09-06T09:48:12.547Z,20.5
2018-09-06T09:53:11.265Z,20.6
2018-09-06T09:58:10.125Z,20.6
2018-09-06T10:03:08.958Z,20.6
2018-09-06T10:08:07.663Z,20.7
2018-09-06T10:13:06.467Z,20.8
2018-09-06T10:18:05.230Z,20.8
2018-09-06T10:23:04.319Z,20.8
2018-09-06T10:28:02.609Z,20.9
2018-09-06T10:33:01.366Z,20.9
2018-09-06T10:38:00.361Z,21
2018-09-06T10:42:59.040Z,21
2018-09-06T10:47:58.031Z,21.1
2018-09-06T10:52:56.805Z,21.1
2018-09-06T10:57:55.615Z,21.2
2018-09-06T11:02:54.474Z,21.2
2018-09-06T11:07:53.345Z,21.3
2018-09-06T11:12:52.169Z,21.3
2018-09-06T11:17:50.827Z,21.4
2018-09-06T11:22:49.562Z,21.4
2018-09-06T11:27:48.382Z,21.5
2018-09-06T11:32:47.103Z,21.5
2018-09-06T11:37:46.142Z,21.6
2018-09-06T11:42:44.914Z,21.6
2018-09-06T11:47:43.740Z,21.7
2018-09-06T11:52:42.831Z,21.7
2018-09-06T11:57:41.399Z,21.8
2018-09-06T12:02:40.161Z,21.9
2018-09-06T12:07:38.748Z,21.9
2018-09-06T12:12:37.690Z,22
2018-09-06T12:17:36.178Z,22
2018-09-06T12:22:35.032Z,22.1
2018-09-06T12:27:33.774Z,22.1
2018-09-06T12:32:32.721Z,22.2
2018-09-06T12:37:31.468Z,22.3
2018-09-06T12:42:30.228Z,22.3
2018-09-06T12:47:28.522Z,21.9
2018-09-06T12:52:27.156Z,22.4
2018-09-06T12:57:25.970Z,22.5
2018-09-06T13:02:24.493Z,22.1
2018-09-06T13:07:23.256Z,22.2
2018-09-06T13:12:22.073Z,22.2
2018-09-06T13:17:20.792Z,22.2
2018-09-06T13:22:19.520Z,22.3
2018-09-06T13:27:18.249Z,22.4
2018-09-06T13:32:17.149Z,22.4
2018-09-06T13:37:15.835Z,22.8
2018-09-06T13:42:14.596Z,22.6
2018-09-06T13:47:13.614Z,22.6
2018-09-06T13:52:12.391Z,22.7
2018-09-06T13:57:11.029Z,22.7
2018-09-06T14:02:09.206Z,22.8
2018-09-06T14:07:07.911Z,22.9
2018-09-06T14:12:06.905Z,22.9
2018-09-06T14:17:05.604Z,23
2018-09-06T14:22:04.399Z,23
2018-09-06T14:27:03.200Z,23.1
2018-09-06T14:32:01.877Z,23.1
2018-09-06T14:37:00.839Z,23.2
2018-09-06T14:41:59.776Z,23.3
2018-09-06T14:46:58.572Z,23.4
2018-09-06T14:51:57.241Z,23.4
2018-09-06T14:56:56.024Z,23.5
2018-09-06T15:01:55.133Z,24
2018-09-06T15:06:54.094Z,23.6
2018-09-06T15:11:53.178Z,23.7
2018-09-06T15:16:52.080Z,23.8
2018-09-06T15:21:50.704Z,23.8
2018-09-06T15:26:49.875Z,23.9
2018-09-06T15:31:48.785Z,23.9
2018-09-06T15:36:47.338Z,24
2018-09-06T15:41:46.102Z,24
2018-09-06T15:46:44.888Z,24
2018-09-06T15:51:43.475Z,24.1
2018-09-06T15:56:42.160Z,24.1
2018-09-06T16:01:40.839Z,24.1
2018-09-06T16:06:39.729Z,24.6
2018-09-06T16:11:38.494Z,23.8
2018-09-06T16:16:37.437Z,24.3
2018-09-06T16:21:35.803Z,24.5
2018-09-06T16:26:34.621Z,24.3
2018-09-06T16:31:33.217Z,24.4
2018-09-06T16:36:32.091Z,24.4
2018-09-06T16:41:30.846Z,24.4
2018-09-06T16:46:29.431Z,24.3
2018-09-06T16:51:28.221Z,24.4
2018-09-06T16:56:27.129Z,24.3
2018-09-06T17:01:25.829Z,24.3
2018-09-06T17:06:24.540Z,24.3
2018-09-06T17:11:23.236Z,24.3
2018-09-06T17:16:22.074Z,24.3
2018-09-06T17:21:20.778Z,24.3
2018-09-06T17:26:19.095Z,24.3
2018-09-06T17:31:17.871Z,24.7
2018-09-06T17:36:16.470Z,24.3
2018-09-06T17:41:15.195Z,24.3
2018-09-06T17:46:13.796Z,24.2
2018-09-06T17:51:12.581Z,24.2
2018-09-06T17:56:11.255Z,24.2
2018-09-06T18:01:10.488Z,24.4
2018-09-06T18:06:09.146Z,24.1
2018-09-06T18:11:08.116Z,24.1
2018-09-06T18:16:06.730Z,24
2018-09-06T18:21:05.460Z,24
2018-09-06T18:26:04.133Z,24
2018-09-06T18:31:02.855Z,23.9
2018-09-06T18:36:01.378Z,23.9
2018-09-06T18:40:59.942Z,23.9
2018-09-06T18:45:58.553Z,23.8
2018-09-06T18:50:57.246Z,23.8
2018-09-06T18:55:56.042Z,23.8
2018-09-06T19:00:54.532Z,23.7
2018-09-06T19:05:53.406Z,23.7
2018-09-06T19:10:52.272Z,23.6
2018-09-06T19:15:50.948Z,23.6
2018-09-06T19:20:49.026Z,23.6
2018-09-06T19:25:47.654Z,23.5
2018-09-06T19:30:46.447Z,23.5
2018-09-06T19:35:45.210Z,23.4
2018-09-06T19:40:44.022Z,23.4
2018-09-06T19:45:42.701Z,23.4
2018-09-06T19:50:40.978Z,23.3
2018-09-06T19:55:39.457Z,23.3
2018-09-06T20:00:38.260Z,23.2
2018-09-06T20:05:36.894Z,23.2
2018-09-06T20:10:35.385Z,23.1
2018-09-06T20:15:33.968Z,23.1
2018-09-06T20:20:32.534Z,23
2018-09-06T20:25:31.363Z,23
2018-09-06T20:30:29.933Z,23
2018-09-06T20:35:28.527Z,22.9
2018-09-06T20:40:26.996Z,22.9
2018-09-06T20:45:25.599Z,22.9
2018-09-06T20:50:24.345Z,22.8
2018-09-06T20:55:22.944Z,22.8
2018-09-06T21:00:21.474Z,22.7
2018-09-06T21:05:20.253Z,22.7
2018-09-06T21:10:18.796Z,22.7
2018-09-06T21:15:17.480Z,22.6
2018-09-06T21:20:15.795Z,22.6
2018-09-06T21:25:14.296Z,22.5
2018-09-06T21:30:13.075Z,22.7
2018-09-06T21:35:11.608Z,22.4
2018-09-06T21:40:10.157Z,22.4
2018-09-06T21:45:08.832Z,22.4
2018-09-06T21:50:07.333Z,22.3
2018-09-06T21:55:06.147Z,22.2
2018-09-06T22:00:05.017Z,22.2
2018-09-06T22:05:03.529Z,22.1
2018-09-06T22:10:02.024Z,22.3
2018-09-06T22:15:00.616Z,22.3
2018-09-06T22:19:59.074Z,22.5
2018-09-06T22:24:57.242Z,22.4
2018-09-06T22:29:55.854Z,22.4
2018-09-06T22:34:54.516Z,22.3
2018-09-06T22:39:53.067Z,22.3
2018-09-06T22:44:51.409Z,22.1
2018-09-06T22:49:49.931Z,22.2
2018-09-06T22:54:48.734Z,22.2
2018-09-06T22:59:47.277Z,22.1
2018-09-06T23:04:45.977Z,22.1
2018-09-06T23:09:44.659Z,22.1
2018-09-06T23:14:43.271Z,22
2018-09-06T23:19:41.773Z,22
2018-09-06T23:24:40.251Z,21.9
2018-09-06T23:29:38.845Z,21.9
2018-09-06T23:34:37.611Z,21.8
2018-09-06T23:39:36.170Z,21.8
2018-09-06T23:44:34.733Z,21.7
2018-09-06T23:49:33.295Z,21.7
2018-09-06T23:54:32.097Z,21.6
2018-09-06T23:59:30.703Z,21.5
